Vernon, Michigan
Current Conditions -  °F | °C
As of 4:35 AM on Saturday 20 Dec 2014 (Local Time) from KRNP Reporting Station
Clear Clear  
Wind Chill: 15°   Ceiling: Unl
Heat Index: 15°   Visibility: 7mi
Dew Point: 15°   Wind: 0mph
Humidity: 100%   Direction: NA
Pressure: 30.29"   Gusts: NA
Location:  42.94°N, 84.03°W
Report Text: KRNP 200935Z AUTO 00000KT 7SM CLR M09/M09 A3029 RMK AO2 T10921092
Loading
Personal Weather Stations






























Interactive Weather Map New forecast layout! Learn more

10-Day Weather Forecast

Advertisements
Track Severe Weather on mobile